createdAt,value
2019-03-25T00:02:30.281Z,45.30
2019-03-25T00:05:00.446Z,45.70
2019-03-25T00:07:32.174Z,45.60
2019-03-25T00:10:02.294Z,45.50
2019-03-25T00:12:32.491Z,45.60
2019-03-25T00:15:02.714Z,45.90
2019-03-25T00:17:32.874Z,45.50
2019-03-25T00:20:05.215Z,45.20
2019-03-25T00:22:35.278Z,45.10
2019-03-25T00:25:07.988Z,45.00
2019-03-25T00:27:57.818Z,45.20
2019-03-25T00:30:28.427Z,45.70
2019-03-25T00:32:58.493Z,45.50
2019-03-25T00:35:29.747Z,45.30
2019-03-25T00:37:59.815Z,45.20
2019-03-25T00:40:29.952Z,45.30
2019-03-25T00:43:00.091Z,45.60
2019-03-25T00:45:30.288Z,46.00
2019-03-25T00:48:00.422Z,47.00
2019-03-25T00:50:30.620Z,47.60
2019-03-25T00:53:00.839Z,47.10
2019-03-25T00:55:30.982Z,47.20
2019-03-25T00:58:01.114Z,47.20
2019-03-25T01:00:31.273Z,47.70
2019-03-25T01:03:01.462Z,47.60
2019-03-25T01:05:33.554Z,47.90
2019-03-25T01:08:05.223Z,48.20
2019-03-25T01:10:35.439Z,47.60
2019-03-25T01:13:05.500Z,47.50
2019-03-25T01:15:35.754Z,47.90
2019-03-25T01:18:16.432Z,48.40
2019-03-25T01:20:37.774Z,49.20
2019-03-25T01:23:09.633Z,49.70
2019-03-25T01:25:42.306Z,50.90
2019-03-25T01:28:12.371Z,51.50
2019-03-25T01:30:44.124Z,52.40
2019-03-25T01:33:15.415Z,54.00
2019-03-25T01:35:50.572Z,54.70
2019-03-25T01:38:20.682Z,54.50
2019-03-25T01:40:50.834Z,53.40
2019-03-25T01:43:20.909Z,51.60
2019-03-25T01:45:51.154Z,53.30
2019-03-25T01:48:23.246Z,53.80
2019-03-25T01:50:53.777Z,55.40
2019-03-25T01:53:23.924Z,55.80
2019-03-25T01:55:54.207Z,55.70
2019-03-25T01:58:24.559Z,55.40
2019-03-25T02:00:54.659Z,55.70
2019-03-25T02:03:25.083Z,55.80
2019-03-25T02:05:55.878Z,55.70
2019-03-25T02:08:26.255Z,55.20
2019-03-25T02:10:56.390Z,54.90
2019-03-25T02:13:28.073Z,55.80
2019-03-25T02:15:58.146Z,57.00
2019-03-25T02:18:28.401Z,56.00
2019-03-25T02:20:59.038Z,56.30
2019-03-25T02:23:29.059Z,55.40
2019-03-25T02:25:59.142Z,54.90
2019-03-25T02:28:29.285Z,54.70
2019-03-25T02:30:59.430Z,54.70
2019-03-25T02:33:29.527Z,54.30
2019-03-25T02:35:59.649Z,55.10
2019-03-25T02:38:30.006Z,55.10
2019-03-25T02:41:00.083Z,55.00
2019-03-25T02:43:30.662Z,54.80
2019-03-25T02:46:00.757Z,54.60
2019-03-25T02:48:30.904Z,54.20
2019-03-25T02:51:01.128Z,54.10
2019-03-25T02:53:32.657Z,54.40
2019-03-25T02:56:03.015Z,54.90
2019-03-25T02:58:33.109Z,54.30
2019-03-25T03:01:04.440Z,53.60
2019-03-25T03:03:34.660Z,53.80
2019-03-25T03:06:06.343Z,54.30
2019-03-25T03:08:37.991Z,54.50
2019-03-25T03:11:09.530Z,54.40
2019-03-25T03:13:41.144Z,54.40
2019-03-25T03:16:11.466Z,55.00
2019-03-25T03:18:42.714Z,54.50
2019-03-25T03:21:12.782Z,54.60
2019-03-25T03:23:42.960Z,54.60
2019-03-25T03:26:12.933Z,55.20
2019-03-25T03:28:43.063Z,55.80
2019-03-25T03:31:13.329Z,56.00
2019-03-25T03:33:45.711Z,55.80
2019-03-25T03:36:16.511Z,55.80
2019-03-25T03:38:46.769Z,56.40
2019-03-25T03:41:18.522Z,56.50
2019-03-25T03:43:48.656Z,57.10
2019-03-25T03:46:18.731Z,57.50
2019-03-25T03:48:48.972Z,56.00
2019-03-25T03:51:19.270Z,56.60
2019-03-25T03:53:49.526Z,57.30
2019-03-25T03:56:21.403Z,57.30
2019-03-25T03:58:54.132Z,56.40
2019-03-25T04:01:24.220Z,56.40
2019-03-25T04:03:54.295Z,56.30
2019-03-25T04:06:24.467Z,56.60
2019-03-25T04:08:54.659Z,55.50
2019-03-25T04:11:24.749Z,55.80
2019-03-25T04:13:54.875Z,56.40
2019-03-25T04:16:25.062Z,56.20
2019-03-25T04:18:55.178Z,57.00
2019-03-25T04:24:14.245Z,58.70
2019-03-25T04:26:44.457Z,59.40
2019-03-25T04:29:14.507Z,58.80
2019-03-25T04:31:48.632Z,58.70
2019-03-25T04:34:18.703Z,58.40
2019-03-25T04:36:49.354Z,58.00
2019-03-25T04:39:19.426Z,58.00
2019-03-25T04:41:50.560Z,58.00
2019-03-25T04:44:23.477Z,58.00
2019-03-25T04:46:55.146Z,58.30
2019-03-25T04:49:26.767Z,58.00
2019-03-25T04:51:56.978Z,57.30
2019-03-25T04:54:27.322Z,57.60
2019-03-25T04:56:57.391Z,57.60
2019-03-25T04:59:27.517Z,57.70
2019-03-25T05:01:58.654Z,57.60
2019-03-25T05:04:28.679Z,57.70
2019-03-25T05:06:59.215Z,57.90
2019-03-25T05:09:31.274Z,57.70
2019-03-25T05:18:56.907Z,57.40
2019-03-25T05:21:31.362Z,57.70
2019-03-25T05:24:01.363Z,57.50
2019-03-25T05:26:32.726Z,57.40
2019-03-25T05:29:02.894Z,57.50
2019-03-25T05:31:33.457Z,57.40
2019-03-25T05:34:03.649Z,57.40
2019-03-25T05:36:33.886Z,57.20
2019-03-25T05:39:07.567Z,56.90
2019-03-25T05:41:37.910Z,56.70
2019-03-25T05:44:09.790Z,56.80
2019-03-25T05:46:43.597Z,57.20
2019-03-25T05:49:13.736Z,57.80
2019-03-25T05:51:43.970Z,58.10
2019-03-25T05:54:14.256Z,58.60
2019-03-25T05:56:44.715Z,58.50
2019-03-25T05:59:14.961Z,58.90
2019-03-25T06:01:46.660Z,58.40
2019-03-25T06:04:16.859Z,58.10
2019-03-25T06:06:47.258Z,57.90
2019-03-25T06:09:17.365Z,58.10
2019-03-25T06:11:47.531Z,58.00
2019-03-25T06:14:17.715Z,58.00
2019-03-25T06:16:47.853Z,57.70
2019-03-25T06:19:17.982Z,57.50
2019-03-25T06:21:49.589Z,57.60
2019-03-25T06:24:19.649Z,57.70
2019-03-25T06:26:50.095Z,56.70
2019-03-25T06:29:20.277Z,57.30
2019-03-25T06:31:50.431Z,61.20
2019-03-25T06:34:21.103Z,62.60
2019-03-25T06:36:51.398Z,63.40
2019-03-25T06:39:22.693Z,63.40
2019-03-25T06:41:54.313Z,64.60
2019-03-25T06:44:24.483Z,64.70
2019-03-25T06:46:55.702Z,63.10
2019-03-25T06:49:25.866Z,60.80
2019-03-25T06:51:56.161Z,57.60
2019-03-25T06:54:26.394Z,57.30
2019-03-25T06:56:58.220Z,56.60
2019-03-25T06:59:28.387Z,55.90
2019-03-25T07:01:58.554Z,55.70
2019-03-25T07:04:31.442Z,54.20
2019-03-25T07:07:01.522Z,53.50
2019-03-25T07:09:32.302Z,52.60
2019-03-25T07:12:02.501Z,52.30
2019-03-25T07:14:35.023Z,52.00
2019-03-25T07:17:05.252Z,51.60
2019-03-25T07:19:35.480Z,51.70
2019-03-25T07:22:05.753Z,51.20
2019-03-25T07:24:37.951Z,50.90
2019-03-25T07:27:08.074Z,50.50
2019-03-25T07:29:39.724Z,50.40
2019-03-25T07:32:09.939Z,49.90
2019-03-25T07:34:41.319Z,50.10
2019-03-25T07:37:11.882Z,49.40
2019-03-25T07:39:41.938Z,47.70
2019-03-25T07:42:12.149Z,47.70
2019-03-25T07:44:42.286Z,47.40
2019-03-25T07:47:12.502Z,48.50
2019-03-25T07:49:42.709Z,48.00
2019-03-25T07:52:13.068Z,48.40
2019-03-25T07:54:43.337Z,48.90
2019-03-25T07:57:13.653Z,47.60
2019-03-25T07:59:43.672Z,47.90
2019-03-25T08:02:15.221Z,47.70
2019-03-25T08:04:45.586Z,47.20
2019-03-25T08:07:15.787Z,47.30
2019-03-25T08:09:46.039Z,46.80
2019-03-25T08:12:16.214Z,46.30
2019-03-25T08:14:50.296Z,46.30
2019-03-25T08:17:20.511Z,45.60
2019-03-25T08:19:50.653Z,46.10
2019-03-25T08:22:20.733Z,45.40
2019-03-25T08:24:52.280Z,45.50
2019-03-25T08:27:22.798Z,45.90
2019-03-25T08:29:54.048Z,45.40
2019-03-25T08:32:24.138Z,45.50
2019-03-25T08:34:55.936Z,45.60
2019-03-25T08:37:26.070Z,45.20
2019-03-25T08:39:56.290Z,44.80
2019-03-25T08:42:26.432Z,43.70
2019-03-25T08:44:56.596Z,43.80
2019-03-25T08:47:26.723Z,43.40
2019-03-25T08:49:56.955Z,43.20
2019-03-25T08:52:26.953Z,42.40
2019-03-25T08:54:59.289Z,42.10
2019-03-25T08:57:29.309Z,42.20
2019-03-25T08:59:59.442Z,42.20
2019-03-25T09:02:29.577Z,42.10
2019-03-25T09:04:59.965Z,41.80
2019-03-25T09:07:30.110Z,41.50
2019-03-25T09:10:00.352Z,41.00
2019-03-25T09:12:30.483Z,40.50
2019-03-25T09:15:00.690Z,40.10
2019-03-25T09:17:30.845Z,40.10
2019-03-25T09:20:03.803Z,40.40
2019-03-25T09:22:33.992Z,40.00
2019-03-25T09:25:08.925Z,40.30
2019-03-25T09:27:39.335Z,39.40
2019-03-25T09:30:13.856Z,39.70
2019-03-25T09:32:43.987Z,39.10
2019-03-25T09:35:14.860Z,38.60
2019-03-25T09:37:45.075Z,38.70
2019-03-25T09:40:15.594Z,38.20
2019-03-25T09:42:46.136Z,38.50
2019-03-25T09:45:16.347Z,38.40
2019-03-25T09:47:48.315Z,37.90
2019-03-25T09:50:18.793Z,37.70
2019-03-25T09:52:48.886Z,37.70
2019-03-25T09:55:18.973Z,37.40
2019-03-25T09:57:51.793Z,37.70
2019-03-25T10:00:32.567Z,37.10
2019-03-25T10:03:04.277Z,36.90
2019-03-25T10:05:34.596Z,36.30
2019-03-25T10:08:10.271Z,36.60
2019-03-25T10:10:41.021Z,37.00
2019-03-25T10:13:14.265Z,37.20
2019-03-25T10:15:43.706Z,36.40
2019-03-25T10:18:13.742Z,36.10
2019-03-25T10:21:06.486Z,34.70
2019-03-25T10:23:36.914Z,35.20
2019-03-25T10:28:58.051Z,34.90
2019-03-25T10:31:28.572Z,33.30
2019-03-25T10:33:58.998Z,33.40
2019-03-25T10:36:31.603Z,33.80
2019-03-25T10:39:01.127Z,32.20
2019-03-25T10:41:32.459Z,33.00
2019-03-25T10:44:04.411Z,32.70
2019-03-25T10:46:34.627Z,32.90
2019-03-25T10:49:04.729Z,32.30
2019-03-25T10:51:34.871Z,32.60
2019-03-25T10:54:05.108Z,32.50
2019-03-25T10:56:35.251Z,32.30
2019-03-25T10:59:05.419Z,32.20
2019-03-25T11:01:35.869Z,31.40
2019-03-25T11:04:06.023Z,31.20
2019-03-25T11:06:37.702Z,30.10
2019-03-25T11:09:08.048Z,30.40
2019-03-25T11:11:38.930Z,30.00
2019-03-25T11:14:13.930Z,29.20
2019-03-25T11:16:47.044Z,28.50
2019-03-25T11:19:17.314Z,28.70
2019-03-25T11:21:51.357Z,28.20
2019-03-25T11:24:24.486Z,28.00
2019-03-25T11:26:54.716Z,28.00
2019-03-25T11:29:24.850Z,27.80
2019-03-25T11:31:56.390Z,27.60
2019-03-25T11:34:26.615Z,28.30
2019-03-25T11:36:58.380Z,28.30
2019-03-25T11:39:28.533Z,27.90
2019-03-25T11:45:01.165Z,26.90
2019-03-25T11:47:34.866Z,28.00
2019-03-25T11:50:15.456Z,27.70
2019-03-25T11:55:41.764Z,26.40
2019-03-25T11:58:12.199Z,26.00
2019-03-25T12:00:42.679Z,26.00
2019-03-25T12:03:12.987Z,25.60
2019-03-25T12:05:44.661Z,25.90
2019-03-25T12:08:14.775Z,25.50
2019-03-25T12:10:44.931Z,25.40
2019-03-25T12:13:16.845Z,25.60
2019-03-25T12:15:47.077Z,24.40
2019-03-25T12:18:19.035Z,24.20
2019-03-25T12:20:49.150Z,24.30
2019-03-25T12:23:26.323Z,23.90
2019-03-25T12:25:52.522Z,23.40
2019-03-25T12:31:17.653Z,23.70
2019-03-25T12:33:47.955Z,23.80
2019-03-25T12:36:18.294Z,22.80
2019-03-25T12:38:48.724Z,22.60
2019-03-25T12:41:19.034Z,21.80
2019-03-25T12:43:49.499Z,21.80
2019-03-25T12:46:19.839Z,21.90
2019-03-25T12:48:50.619Z,21.60
2019-03-25T12:51:21.930Z,21.70
2019-03-25T12:53:52.248Z,21.30
2019-03-25T12:56:22.578Z,20.90
2019-03-25T12:58:53.912Z,21.30
2019-03-25T13:01:26.283Z,20.50
2019-03-25T13:03:56.611Z,20.30
2019-03-25T13:06:26.931Z,21.50
2019-03-25T13:08:57.272Z,20.80
2019-03-25T13:11:27.680Z,20.70
2019-03-25T13:14:00.841Z,20.50
2019-03-25T13:16:31.269Z,19.30
2019-03-25T13:19:01.979Z,20.00
2019-03-25T13:21:33.427Z,21.00
2019-03-25T13:24:03.917Z,21.50
2019-03-25T13:26:36.327Z,21.60
2019-03-25T13:29:06.599Z,21.40
2019-03-25T13:31:36.839Z,21.00
2019-03-25T13:34:08.229Z,20.60
2019-03-25T13:36:38.505Z,21.60
2019-03-25T13:39:09.973Z,21.50
2019-03-25T13:41:40.291Z,21.50
2019-03-25T13:44:10.617Z,21.10
2019-03-25T13:46:42.622Z,21.70
2019-03-25T13:49:12.954Z,22.20
2019-03-25T13:51:43.195Z,22.60
2019-03-25T13:54:13.587Z,23.40
2019-03-25T13:56:43.926Z,23.20
2019-03-25T13:59:14.168Z,23.60
2019-03-25T14:01:44.510Z,23.30
2019-03-25T14:04:14.749Z,23.30
2019-03-25T14:06:45.115Z,22.60
2019-03-25T14:09:24.511Z,22.90
2019-03-25T14:11:54.912Z,22.50
2019-03-25T14:14:25.164Z,23.30
2019-03-25T14:16:55.512Z,23.30
2019-03-25T14:19:25.814Z,23.40
2019-03-25T14:21:56.043Z,23.80
2019-03-25T14:24:26.309Z,23.70
2019-03-25T14:26:58.145Z,23.90
2019-03-25T14:29:30.707Z,24.20
2019-03-25T14:32:01.099Z,24.70
2019-03-25T14:34:31.510Z,24.70
2019-03-25T14:37:01.850Z,24.20
2019-03-25T14:39:33.301Z,23.50
2019-03-25T14:42:04.386Z,23.70
2019-03-25T14:44:34.730Z,24.00
2019-03-25T14:47:13.492Z,23.90
2019-03-25T14:49:43.883Z,24.50
2019-03-25T14:52:14.165Z,24.80
2019-03-25T14:54:45.037Z,24.50
2019-03-25T14:57:19.427Z,24.60
2019-03-25T14:59:51.010Z,25.20
2019-03-25T15:02:21.346Z,25.60
2019-03-25T15:04:51.690Z,25.50
2019-03-25T15:07:22.027Z,25.30
2019-03-25T15:09:52.821Z,25.30
2019-03-25T15:12:24.823Z,25.90
2019-03-25T15:17:45.859Z,26.50
2019-03-25T15:20:16.703Z,26.50
2019-03-25T15:22:47.051Z,25.40
2019-03-25T15:25:17.437Z,25.90
2019-03-25T15:27:48.804Z,26.70
2019-03-25T15:30:19.435Z,25.70
2019-03-25T15:32:49.733Z,26.00
2019-03-25T15:35:20.039Z,26.50
2019-03-25T15:37:50.355Z,26.30
2019-03-25T15:40:20.760Z,27.30
2019-03-25T15:42:51.287Z,26.60
2019-03-25T15:45:22.008Z,27.20
2019-03-25T15:47:52.347Z,27.30
2019-03-25T15:50:22.680Z,27.30
2019-03-25T15:52:52.990Z,26.90
2019-03-25T15:55:23.316Z,26.90
2019-03-25T15:57:55.133Z,27.30
2019-03-25T16:00:26.932Z,27.00
2019-03-25T16:03:17.696Z,27.90
2019-03-25T16:06:06.070Z,27.30
2019-03-25T16:08:36.364Z,28.00
2019-03-25T16:11:06.687Z,27.60
2019-03-25T16:13:37.068Z,27.80
2019-03-25T16:16:08.037Z,27.60
2019-03-25T16:18:40.449Z,27.40
2019-03-25T16:21:10.943Z,27.70
2019-03-25T16:23:41.678Z,27.70
2019-03-25T16:26:15.251Z,28.00
2019-03-25T16:28:45.589Z,27.70
2019-03-25T16:31:17.833Z,27.40
2019-03-25T16:33:48.153Z,27.40
2019-03-25T16:36:18.526Z,27.50
2019-03-25T16:38:48.855Z,27.70
2019-03-25T16:41:19.164Z,27.90
2019-03-25T16:43:49.506Z,28.20
2019-03-25T16:46:20.122Z,27.90
2019-03-25T16:48:50.436Z,28.30
2019-03-25T16:51:21.137Z,28.10
2019-03-25T16:53:51.468Z,28.30
2019-03-25T16:56:21.837Z,28.60
2019-03-25T16:58:52.508Z,28.80
2019-03-25T17:01:22.819Z,29.10
2019-03-25T17:03:53.180Z,29.40
2019-03-25T17:06:23.511Z,29.40
2019-03-25T17:08:53.886Z,29.40
2019-03-25T17:11:24.641Z,29.30
2019-03-25T17:13:54.962Z,29.60
2019-03-25T17:16:25.213Z,29.70
2019-03-25T17:18:55.534Z,29.80
2019-03-25T17:21:27.084Z,29.80
2019-03-25T17:23:57.495Z,29.80
2019-03-25T17:26:29.371Z,30.10
2019-03-25T17:29:01.267Z,30.00
2019-03-25T17:31:33.218Z,30.20
2019-03-25T17:34:03.483Z,30.00
2019-03-25T17:36:35.168Z,29.80
2019-03-25T17:39:08.390Z,30.50
2019-03-25T17:41:38.751Z,30.90
2019-03-25T17:44:09.152Z,31.20
2019-03-25T17:46:39.435Z,31.20
2019-03-25T17:49:09.823Z,31.60
2019-03-25T17:51:40.137Z,31.90
2019-03-25T17:54:10.475Z,31.70
2019-03-25T17:56:41.153Z,32.30
2019-03-25T17:59:11.495Z,32.60
2019-03-25T18:01:41.908Z,32.70
2019-03-25T18:04:12.327Z,33.40
2019-03-25T18:07:50.936Z,32.90
2019-03-25T18:10:21.163Z,33.00
2019-03-25T18:12:51.423Z,32.80
2019-03-25T18:15:21.739Z,32.80
2019-03-25T18:17:51.834Z,33.10
2019-03-25T18:20:22.934Z,33.10
2019-03-25T18:22:53.103Z,33.60
2019-03-25T18:25:23.332Z,34.30
2019-03-25T18:27:53.659Z,34.80
2019-03-25T18:30:34.426Z,35.10
2019-03-25T18:33:04.906Z,35.40
2019-03-25T18:35:42.243Z,35.30
2019-03-25T18:38:12.551Z,35.40
2019-03-25T18:40:42.799Z,35.50
2019-03-25T18:43:12.954Z,34.80
2019-03-25T18:45:43.349Z,34.80
2019-03-25T18:48:13.542Z,33.70
2019-03-25T18:50:44.721Z,33.80
2019-03-25T18:53:14.934Z,33.20
2019-03-25T18:55:45.067Z,33.20
2019-03-25T18:58:16.532Z,32.80
2019-03-25T19:00:48.281Z,33.30
2019-03-25T19:03:20.423Z,32.20
2019-03-25T19:05:50.857Z,32.10
2019-03-25T19:08:21.427Z,32.00
2019-03-25T19:10:51.847Z,31.20
2019-03-25T19:13:22.991Z,30.10
2019-03-25T19:15:55.062Z,30.00
2019-03-25T19:18:29.069Z,29.70
2019-03-25T19:21:00.226Z,28.30
2019-03-25T19:23:31.810Z,26.30
2019-03-25T19:26:02.000Z,26.90
2019-03-25T19:28:32.308Z,26.00
2019-03-25T19:38:10.314Z,23.60
2019-03-25T19:40:40.667Z,25.40
2019-03-25T19:43:11.720Z,24.60
2019-03-25T19:45:42.005Z,24.00
2019-03-25T19:51:01.491Z,24.60
2019-03-25T19:53:33.557Z,24.20
2019-03-25T19:56:03.845Z,24.50
2019-03-25T19:58:33.855Z,24.80
2019-03-25T20:01:04.112Z,25.00
2019-03-25T20:03:34.247Z,25.50
2019-03-25T20:06:04.609Z,25.30
2019-03-25T20:08:35.125Z,25.60
2019-03-25T20:11:05.371Z,24.90
2019-03-25T20:13:37.765Z,24.70
2019-03-25T20:16:07.817Z,25.20
2019-03-25T20:18:39.780Z,25.90
2019-03-25T20:21:10.233Z,26.20
2019-03-25T20:23:41.908Z,25.80
2019-03-25T20:26:12.112Z,24.90
2019-03-25T20:28:42.424Z,24.40
2019-03-25T20:31:12.678Z,24.70
2019-03-25T20:33:45.984Z,24.50
2019-03-25T20:36:16.136Z,24.80
2019-03-25T20:38:49.427Z,24.10
2019-03-25T20:41:18.390Z,23.00
2019-03-25T20:43:49.140Z,22.60
2019-03-25T20:46:19.339Z,22.40
2019-03-25T20:48:49.388Z,22.40
2019-03-25T20:51:19.790Z,21.80
2019-03-25T20:53:49.905Z,22.70
2019-03-25T20:56:21.210Z,22.50
2019-03-25T20:58:51.444Z,22.90
2019-03-25T21:01:21.482Z,22.60
2019-03-25T21:03:53.279Z,22.80
2019-03-25T21:06:23.597Z,22.30
2019-03-25T21:08:54.232Z,22.00
2019-03-25T21:11:26.108Z,22.00
2019-03-25T21:13:57.344Z,22.10
2019-03-25T21:16:44.446Z,22.00
2019-03-25T21:19:16.637Z,21.50
2019-03-25T21:21:47.182Z,21.70
2019-03-25T21:24:17.782Z,26.50
2019-03-25T21:26:48.047Z,29.30
2019-03-25T21:29:18.381Z,29.40
2019-03-25T21:31:48.461Z,29.30
2019-03-25T21:34:22.553Z,32.70
2019-03-25T21:36:52.750Z,35.80
2019-03-25T21:39:24.260Z,36.80
2019-03-25T21:41:55.728Z,37.30
2019-03-25T21:44:26.065Z,37.00
2019-03-25T21:46:57.498Z,36.80
2019-03-25T21:49:29.185Z,39.10
2019-03-25T21:52:04.567Z,40.30
2019-03-25T21:54:36.418Z,40.10
2019-03-25T21:57:08.514Z,40.30
2019-03-25T21:59:43.459Z,39.40
2019-03-25T22:02:17.906Z,37.60
2019-03-25T22:04:48.079Z,32.80
2019-03-25T22:10:13.717Z,26.00
2019-03-25T22:12:50.358Z,26.70
2019-03-25T22:15:23.202Z,27.10
2019-03-25T22:17:53.488Z,26.30
2019-03-25T22:20:24.998Z,26.00
2019-03-25T22:22:55.178Z,26.70
2019-03-25T22:25:28.027Z,26.50
2019-03-25T22:28:03.381Z,26.90
2019-03-25T22:30:35.353Z,26.90
2019-03-25T22:33:05.492Z,27.70
2019-03-25T22:35:37.267Z,26.50
2019-03-25T22:38:17.618Z,26.50
2019-03-25T22:40:47.647Z,28.00
2019-03-25T22:43:19.323Z,27.30
2019-03-25T22:45:52.395Z,26.10
2019-03-25T22:48:22.562Z,26.00
2019-03-25T22:50:52.747Z,25.70
2019-03-25T22:53:26.779Z,26.60
2019-03-25T22:55:57.900Z,27.50
2019-03-25T22:58:29.526Z,29.90
2019-03-25T23:01:05.930Z,31.00
2019-03-25T23:03:40.119Z,32.10
2019-03-25T23:06:10.335Z,32.60
2019-03-25T23:08:40.589Z,32.60
2019-03-25T23:11:10.593Z,31.40
2019-03-25T23:13:41.150Z,32.60
2019-03-25T23:16:11.168Z,32.80
2019-03-25T23:18:44.256Z,38.40
2019-03-25T23:24:06.165Z,43.00
2019-03-25T23:26:37.846Z,38.30
2019-03-25T23:29:09.457Z,38.60
2019-03-25T23:31:39.586Z,40.10
2019-03-25T23:34:11.470Z,37.80
2019-03-25T23:36:42.912Z,40.50
2019-03-25T23:39:13.076Z,47.60
2019-03-25T23:41:45.145Z,52.10
2019-03-25T23:44:16.400Z,53.50
2019-03-25T23:46:47.620Z,53.00
2019-03-25T23:49:17.735Z,54.10
2019-03-25T23:51:47.798Z,56.30
2019-03-25T23:54:17.783Z,56.30
2019-03-25T23:56:47.986Z,56.80
2019-03-25T23:59:18.106Z,56.90
